createdAt,value
2019-04-13T00:01:33.761Z,27.13
2019-04-13T00:06:42.792Z,29.40
2019-04-13T00:11:48.712Z,25.63
2019-04-13T00:16:49.828Z,22.70
2019-04-13T00:21:51.011Z,26.23
2019-04-13T00:26:52.112Z,28.57
2019-04-13T00:31:53.213Z,29.40
2019-04-13T00:36:54.304Z,27.13
2019-04-13T00:41:55.395Z,25.67
2019-04-13T00:46:56.484Z,24.57
2019-04-13T00:51:57.571Z,24.40
2019-04-13T00:56:58.663Z,25.97
2019-04-13T01:01:59.759Z,26.47
2019-04-13T01:07:00.855Z,25.47
2019-04-13T01:12:02.071Z,24.10
2019-04-13T01:17:03.367Z,22.93
2019-04-13T01:22:04.483Z,24.37
2019-04-13T01:27:05.618Z,21.70
2019-04-13T01:32:06.716Z,23.00
2019-04-13T01:37:07.829Z,21.73
2019-04-13T01:42:08.920Z,21.83
2019-04-13T01:47:10.011Z,21.77
2019-04-13T01:52:11.108Z,20.10
2019-04-13T01:57:12.199Z,20.53
2019-04-13T02:02:17.940Z,20.47
2019-04-13T02:07:29.939Z,20.33
2019-04-13T02:12:31.069Z,22.57
2019-04-13T02:17:32.164Z,21.17
2019-04-13T02:22:33.254Z,22.47
2019-04-13T02:27:34.347Z,22.23
2019-04-13T02:32:35.446Z,19.80
2019-04-13T02:37:36.655Z,19.83
2019-04-13T02:42:37.945Z,22.50
2019-04-13T02:47:39.044Z,24.33
2019-04-13T02:52:40.241Z,21.37
2019-04-13T02:57:41.328Z,19.57
2019-04-13T03:02:42.427Z,23.00
2019-04-13T03:07:43.522Z,22.37
2019-04-13T03:12:44.638Z,22.83
2019-04-13T03:17:50.355Z,19.40
2019-04-13T03:22:51.570Z,21.00
2019-04-13T03:27:52.674Z,20.57
2019-04-13T03:32:53.878Z,21.50
2019-04-13T03:37:55.080Z,21.63
2019-04-13T03:42:56.171Z,22.13
2019-04-13T03:47:57.265Z,25.07
2019-04-13T03:52:58.359Z,21.37
2019-04-13T03:57:59.454Z,24.53
2019-04-13T04:03:00.547Z,25.13
2019-04-13T04:08:01.725Z,23.57
2019-04-13T04:13:02.943Z,22.17
2019-04-13T04:18:04.031Z,27.03
2019-04-13T04:23:05.135Z,24.77
2019-04-13T04:28:06.204Z,24.40
2019-04-13T04:33:07.291Z,23.57
2019-04-13T04:38:08.398Z,25.03
2019-04-13T04:43:09.489Z,26.40
2019-04-13T04:48:10.580Z,22.73
2019-04-13T04:53:11.669Z,21.27
2019-04-13T04:58:12.764Z,24.30
2019-04-13T05:03:13.865Z,21.53
2019-04-13T05:08:14.988Z,22.03
2019-04-13T05:13:16.096Z,22.47
2019-04-13T05:18:17.439Z,23.93
2019-04-13T05:23:18.528Z,21.47
2019-04-13T05:28:19.634Z,23.90
2019-04-13T05:33:20.781Z,24.13
2019-04-13T05:38:21.888Z,19.97
2019-04-13T05:43:22.979Z,22.07
2019-04-13T05:48:24.074Z,23.37
2019-04-13T05:53:25.167Z,25.40
2019-04-13T05:58:26.266Z,22.30
2019-04-13T06:03:27.363Z,23.70
2019-04-13T06:08:29.510Z,19.10
2019-04-13T06:13:30.884Z,21.00
2019-04-13T06:18:31.987Z,19.77
2019-04-13T06:23:33.076Z,21.73
2019-04-13T06:28:34.167Z,19.53
2019-04-13T06:33:54.036Z,21.10
2019-04-13T06:38:59.449Z,21.17
2019-04-13T06:43:58.540Z,18.17
2019-04-13T06:54:12.444Z,18.53
2019-04-13T06:59:13.774Z,30.07
2019-04-13T07:04:14.874Z,23.80
2019-04-13T07:09:26.156Z,21.97
2019-04-13T07:14:25.340Z,19.30
2019-04-13T07:19:26.444Z,23.13
2019-04-13T07:24:28.670Z,21.40
2019-04-13T07:29:30.538Z,21.17
2019-04-13T07:34:33.955Z,20.80
2019-04-13T07:39:34.784Z,20.47
2019-04-13T07:44:37.783Z,17.73
2019-04-13T07:49:58.954Z,18.83
2019-04-13T07:55:00.051Z,17.77
2019-04-13T08:00:03.078Z,20.80
2019-04-13T08:05:05.431Z,20.87
2019-04-13T08:10:06.931Z,22.57
2019-04-13T08:15:08.457Z,19.50
2019-04-13T08:20:14.187Z,19.30
2019-04-13T08:25:15.279Z,18.63
2019-04-13T08:30:17.042Z,20.07
2019-04-13T08:35:19.570Z,20.03
2019-04-13T08:40:20.936Z,26.67
2019-04-13T08:45:22.135Z,19.40
2019-04-13T08:50:23.248Z,21.60
2019-04-13T08:55:24.353Z,19.77
2019-04-13T09:00:25.447Z,21.17
2019-04-13T09:05:26.652Z,21.10
2019-04-13T09:10:30.159Z,21.40
2019-04-13T09:15:31.133Z,21.23
2019-04-13T09:20:36.943Z,21.63
2019-04-13T09:25:37.335Z,22.30
2019-04-13T09:30:40.333Z,23.17
2019-04-13T09:35:41.436Z,22.97
2019-04-13T09:40:42.579Z,25.20
2019-04-13T09:45:46.180Z,24.77
2019-04-13T09:50:47.287Z,24.90
2019-04-13T09:55:50.002Z,21.70
2019-04-13T10:00:52.623Z,21.63
2019-04-13T10:05:53.985Z,22.80
2019-04-13T10:10:55.193Z,23.60
2019-04-13T10:15:58.232Z,20.70
2019-04-13T10:20:59.679Z,22.17
2019-04-13T10:26:00.782Z,24.10
2019-04-13T10:31:01.882Z,22.57
2019-04-13T10:36:03.320Z,25.07
2019-04-13T10:41:07.021Z,23.97
2019-04-13T10:46:28.183Z,27.20
2019-04-13T10:51:43.299Z,20.23
2019-04-13T10:56:44.541Z,22.57
2019-04-13T11:01:45.640Z,21.50
2019-04-13T11:06:46.854Z,19.67
2019-04-13T11:11:47.942Z,23.17
2019-04-13T11:16:49.180Z,22.17
2019-04-13T11:21:50.371Z,29.00
2019-04-13T11:26:51.754Z,26.40
2019-04-13T11:31:55.031Z,26.47
2019-04-13T11:36:56.080Z,28.43
2019-04-13T11:41:59.199Z,28.53
2019-04-13T11:47:04.884Z,27.13
2019-04-13T11:52:05.982Z,27.90
2019-04-13T11:57:11.241Z,25.53
2019-04-13T12:02:30.445Z,26.20
2019-04-13T12:07:33.440Z,27.93
2019-04-13T12:12:53.092Z,27.57
2019-04-13T12:18:05.300Z,26.60
2019-04-13T12:23:07.110Z,35.47
2019-04-13T12:28:08.231Z,35.60
2019-04-13T12:33:09.346Z,46.70
2019-04-13T12:38:10.733Z,35.60
2019-04-13T12:43:12.077Z,33.57
2019-04-13T12:48:17.565Z,32.47
2019-04-13T12:53:16.285Z,38.50
2019-04-13T12:58:17.414Z,35.80
2019-04-13T13:03:20.443Z,30.73
2019-04-13T13:08:21.760Z,32.13
2019-04-13T13:13:22.920Z,42.23
2019-04-13T13:18:27.050Z,40.73
2019-04-13T13:23:27.387Z,35.20
2019-04-13T13:28:30.788Z,42.47
2019-04-13T13:33:31.500Z,36.30
2019-04-13T13:38:32.607Z,47.77
2019-04-13T13:43:33.708Z,43.83
2019-04-13T13:48:34.814Z,51.10
2019-04-13T13:53:35.940Z,36.20
2019-04-13T13:58:42.565Z,35.97
2019-04-13T14:03:43.659Z,42.10
2019-04-13T14:08:44.921Z,40.50
2019-04-13T14:13:46.041Z,40.33
2019-04-13T14:18:47.172Z,41.63
2019-04-13T14:23:48.270Z,42.57
2019-04-13T14:28:49.693Z,43.67
2019-04-13T14:33:51.050Z,38.13
2019-04-13T14:38:52.379Z,38.70
2019-04-13T14:43:53.579Z,36.90
2019-04-13T14:48:54.738Z,43.17
2019-04-13T14:53:56.060Z,41.27
2019-04-13T14:58:57.176Z,36.47
2019-04-13T15:03:58.284Z,36.80
2019-04-13T15:08:59.392Z,39.03
2019-04-13T15:14:00.490Z,42.40
2019-04-13T15:19:21.082Z,38.93
2019-04-13T15:24:15.290Z,41.93
2019-04-13T15:29:18.908Z,41.40
2019-04-13T15:34:18.586Z,40.10
2019-04-13T15:39:20.652Z,36.10
2019-04-13T15:44:22.920Z,40.00
2019-04-13T15:49:25.388Z,40.93
2019-04-13T15:54:26.731Z,44.83
2019-04-13T15:59:28.777Z,43.30
2019-04-13T16:04:31.015Z,44.40
2019-04-13T16:09:34.783Z,49.47
2019-04-13T16:14:37.358Z,44.30
2019-04-13T16:19:39.482Z,43.00
2019-04-13T16:24:41.543Z,53.83
2019-04-13T16:29:44.739Z,50.30
2019-04-13T16:34:48.760Z,53.33
2019-04-13T16:39:51.170Z,49.07
2019-04-13T16:45:07.060Z,53.40
2019-04-13T16:50:22.099Z,75.17
2019-04-13T16:55:28.835Z,50.27
2019-04-13T17:00:44.189Z,51.30
2019-04-13T17:05:47.266Z,55.13
2019-04-13T17:10:50.223Z,49.87
2019-04-13T17:15:52.014Z,52.80
2019-04-13T17:21:02.081Z,53.80
2019-04-13T17:26:20.811Z,53.63
2019-04-13T17:31:43.398Z,62.23
2019-04-13T17:36:47.765Z,56.53
2019-04-13T17:41:51.076Z,50.33
2019-04-13T17:46:55.034Z,62.67
2019-04-13T17:52:11.235Z,63.73
2019-04-13T17:57:14.370Z,56.50
2019-04-13T18:02:17.683Z,56.23
2019-04-13T18:07:26.511Z,55.10
2019-04-13T18:12:46.897Z,59.27
2019-04-13T18:17:49.470Z,54.53
2019-04-13T18:22:50.684Z,54.97
2019-04-13T18:27:52.497Z,59.00
2019-04-13T18:32:53.806Z,59.23
2019-04-13T18:37:55.998Z,62.67
2019-04-13T18:43:06.981Z,56.97
2019-04-13T18:48:00.361Z,55.33
2019-04-13T18:53:05.294Z,54.70
2019-04-13T18:58:05.558Z,64.70
2019-04-13T19:03:07.181Z,69.50
2019-04-13T19:08:08.441Z,66.83
2019-04-13T19:13:09.651Z,63.07
2019-04-13T19:18:11.053Z,58.83
2019-04-13T19:23:12.170Z,63.80
2019-04-13T19:28:13.417Z,64.10
2019-04-13T19:33:14.634Z,61.10
2019-04-13T19:38:16.519Z,62.57
2019-04-13T19:43:17.701Z,67.07
2019-04-13T19:48:18.816Z,65.93
2019-04-13T19:53:21.836Z,63.67
2019-04-13T19:58:22.949Z,63.93
2019-04-13T20:03:25.385Z,66.83
2019-04-13T20:08:26.604Z,76.43
2019-04-13T20:13:39.014Z,72.07
2019-04-13T20:18:30.739Z,75.13
2019-04-13T20:23:31.846Z,72.80
2019-04-13T20:28:33.170Z,72.60
2019-04-13T20:33:34.978Z,71.97
2019-04-13T20:38:36.845Z,72.63
2019-04-13T20:43:51.107Z,76.80
2019-04-13T20:48:42.463Z,74.23
2019-04-13T20:53:45.766Z,73.80
2019-04-13T20:58:46.864Z,67.87
2019-04-13T21:03:49.032Z,69.73
2019-04-13T21:08:52.536Z,66.97
2019-04-13T21:14:05.028Z,56.57
2019-04-13T21:18:56.403Z,50.67
2019-04-13T21:23:58.097Z,52.93
2019-04-13T21:29:00.370Z,51.87
2019-04-13T21:34:02.593Z,49.70
2019-04-13T21:39:07.058Z,47.93
2019-04-13T21:44:16.665Z,49.20
2019-04-13T21:49:12.133Z,53.50
2019-04-13T21:54:15.242Z,49.27
2019-04-13T21:59:17.244Z,43.73
2019-04-13T22:04:19.821Z,40.33
2019-04-13T22:09:21.726Z,40.57
2019-04-13T22:14:37.388Z,38.80
2019-04-13T22:19:26.625Z,37.93
2019-04-13T22:24:28.873Z,44.37
2019-04-13T22:29:35.488Z,41.67
2019-04-13T22:34:38.620Z,38.80
2019-04-13T22:39:40.051Z,41.00
2019-04-13T22:44:49.579Z,37.90
2019-04-13T22:49:47.331Z,41.60
2019-04-13T22:55:03.601Z,41.97
2019-04-13T23:00:10.571Z,40.00
2019-04-13T23:05:13.268Z,37.87
2019-04-13T23:10:15.919Z,40.10
2019-04-13T23:15:25.617Z,38.13
2019-04-13T23:20:21.411Z,42.20
2019-04-13T23:25:22.689Z,42.73
2019-04-13T23:30:24.867Z,41.27
2019-04-13T23:35:26.393Z,38.10
2019-04-13T23:40:28.810Z,41.27
2019-04-13T23:45:34.296Z,41.17
2019-04-13T23:50:34.980Z,40.80
2019-04-13T23:55:42.092Z,42.93
